sensor_id;sensor_type;location;lat;lon;timestamp;pressure;altitude;pressure_sealevel;temperature;humidity
53262;BME280;39658;51.090;-1.786;2023-08-17T00:02:18;101648.66;;;13.30;100.00
53262;BME280;39658;51.090;-1.786;2023-08-17T00:04:45;101656.88;;;13.25;100.00
53262;BME280;39658;51.090;-1.786;2023-08-17T00:07:12;101659.72;;;13.22;100.00
53262;BME280;39658;51.090;-1.786;2023-08-17T00:09:39;101652.72;;;13.21;100.00
53262;BME280;39658;51.090;-1.786;2023-08-17T00:12:06;101649.41;;;13.18;100.00
53262;BME280;39658;51.090;-1.786;2023-08-17T00:14:34;101646.97;;;13.15;100.00
53262;BME280;39658;51.090;-1.786;2023-08-17T00:17:01;101654.13;;;13.13;100.00
53262;BME280;39658;51.090;-1.786;2023-08-17T00:19:28;101647.44;;;13.07;100.00
53262;BME280;39658;51.090;-1.786;2023-08-17T00:21:55;101634.59;;;13.01;100.00
53262;BME280;39658;51.090;-1.786;2023-08-17T00:24:22;101641.09;;;12.95;100.00
53262;BME280;39658;51.090;-1.786;2023-08-17T00:26:48;101639.75;;;12.88;100.00
53262;BME280;39658;51.090;-1.786;2023-08-17T00:29:15;101635.53;;;12.85;100.00
53262;BME280;39658;51.090;-1.786;2023-08-17T00:31:44;101631.25;;;12.83;100.00
53262;BME280;39658;51.090;-1.786;2023-08-17T00:34:10;101629.44;;;12.83;100.00
53262;BME280;39658;51.090;-1.786;2023-08-17T00:36:37;101630.31;;;12.84;100.00
53262;BME280;39658;51.090;-1.786;2023-08-17T00:39:04;101627.50;;;12.87;100.00
53262;BME280;39658;51.090;-1.786;2023-08-17T00:41:31;101630.78;;;12.90;100.00
53262;BME280;39658;51.090;-1.786;2023-08-17T00:43:59;101630.88;;;12.89;100.00
53262;BME280;39658;51.090;-1.786;2023-08-17T00:46:26;101622.94;;;12.89;100.00
53262;BME280;39658;51.090;-1.786;2023-08-17T00:48:54;101626.63;;;12.86;100.00
53262;BME280;39658;51.090;-1.786;2023-08-17T00:51:22;101621.22;;;12.88;100.00
53262;BME280;39658;51.090;-1.786;2023-08-17T00:53:50;101624.75;;;12.88;100.00
53262;BME280;39658;51.090;-1.786;2023-08-17T00:56:17;101619.44;;;12.88;100.00
53262;BME280;39658;51.090;-1.786;2023-08-17T00:58:44;101618.66;;;12.86;100.00
53262;BME280;39658;51.090;-1.786;2023-08-17T01:01:11;101615.56;;;12.80;100.00
53262;BME280;39658;51.090;-1.786;2023-08-17T01:03:39;101606.31;;;12.72;100.00
53262;BME280;39658;51.090;-1.786;2023-08-17T01:06:08;101622.47;;;12.68;100.00
53262;BME280;39658;51.090;-1.786;2023-08-17T01:08:36;101615.84;;;12.61;100.00
53262;BME280;39658;51.090;-1.786;2023-08-17T01:11:11;101615.47;;;12.52;100.00
53262;BME280;39658;51.090;-1.786;2023-08-17T01:13:47;101621.88;;;12.48;100.00
53262;BME280;39658;51.090;-1.786;2023-08-17T01:16:16;101623.84;;;12.45;100.00
53262;BME280;39658;51.090;-1.786;2023-08-17T01:18:48;101612.50;;;12.43;100.00
53262;BME280;39658;51.090;-1.786;2023-08-17T01:21:21;101614.84;;;12.47;100.00
53262;BME280;39658;51.090;-1.786;2023-08-17T01:23:50;101615.56;;;12.51;100.00
53262;BME280;39658;51.090;-1.786;2023-08-17T01:26:17;101615.38;;;12.54;100.00
53262;BME280;39658;51.090;-1.786;2023-08-17T01:28:45;101602.03;;;12.55;100.00
53262;BME280;39658;51.090;-1.786;2023-08-17T01:31:19;101593.16;;;12.56;100.00
53262;BME280;39658;51.090;-1.786;2023-08-17T01:33:50;101583.44;;;12.57;100.00
53262;BME280;39658;51.090;-1.786;2023-08-17T01:36:22;101589.66;;;12.56;100.00
53262;BME280;39658;51.090;-1.786;2023-08-17T01:38:54;101586.34;;;12.52;100.00
53262;BME280;39658;51.090;-1.786;2023-08-17T01:41:23;101580.38;;;12.49;100.00
53262;BME280;39658;51.090;-1.786;2023-08-17T01:43:52;101572.63;;;12.46;100.00
53262;BME280;39658;51.090;-1.786;2023-08-17T01:46:19;101570.19;;;12.43;100.00
53262;BME280;39658;51.090;-1.786;2023-08-17T01:48:46;101568.69;;;12.38;100.00
53262;BME280;39658;51.090;-1.786;2023-08-17T01:51:17;101562.06;;;12.46;100.00
53262;BME280;39658;51.090;-1.786;2023-08-17T01:53:44;101570.75;;;12.48;100.00
53262;BME280;39658;51.090;-1.786;2023-08-17T01:56:13;101577.00;;;12.47;100.00
53262;BME280;39658;51.090;-1.786;2023-08-17T01:58:40;101580.66;;;12.44;100.00
53262;BME280;39658;51.090;-1.786;2023-08-17T02:01:07;101585.28;;;12.41;100.00
53262;BME280;39658;51.090;-1.786;2023-08-17T02:03:33;101595.97;;;12.39;100.00
53262;BME280;39658;51.090;-1.786;2023-08-17T02:06:00;101609.19;;;12.39;100.00
53262;BME280;39658;51.090;-1.786;2023-08-17T02:08:27;101610.22;;;12.36;100.00
53262;BME280;39658;51.090;-1.786;2023-08-17T02:10:54;101612.75;;;12.38;100.00
53262;BME280;39658;51.090;-1.786;2023-08-17T02:13:23;101603.25;;;12.35;100.00
53262;BME280;39658;51.090;-1.786;2023-08-17T02:15:52;101624.31;;;12.37;100.00
53262;BME280;39658;51.090;-1.786;2023-08-17T02:18:19;101621.06;;;12.32;100.00
53262;BME280;39658;51.090;-1.786;2023-08-17T02:20:46;101624.75;;;12.29;100.00
53262;BME280;39658;51.090;-1.786;2023-08-17T02:23:13;101623.97;;;12.27;100.00
53262;BME280;39658;51.090;-1.786;2023-08-17T02:25:40;101619.81;;;12.23;100.00
53262;BME280;39658;51.090;-1.786;2023-08-17T02:28:06;101620.94;;;12.19;100.00
53262;BME280;39658;51.090;-1.786;2023-08-17T02:30:35;101629.22;;;12.13;100.00
53262;BME280;39658;51.090;-1.786;2023-08-17T02:33:02;101621.81;;;12.03;100.00
53262;BME280;39658;51.090;-1.786;2023-08-17T02:35:29;101624.81;;;11.97;100.00
53262;BME280;39658;51.090;-1.786;2023-08-17T02:37:56;101626.88;;;11.92;100.00
53262;BME280;39658;51.090;-1.786;2023-08-17T02:40:23;101624.56;;;11.86;100.00
53262;BME280;39658;51.090;-1.786;2023-08-17T02:42:50;101610.78;;;11.81;100.00
53262;BME280;39658;51.090;-1.786;2023-08-17T02:45:17;101610.94;;;11.78;100.00
53262;BME280;39658;51.090;-1.786;2023-08-17T02:47:45;101617.16;;;11.77;100.00
53262;BME280;39658;51.090;-1.786;2023-08-17T02:50:12;101615.63;;;11.73;100.00
53262;BME280;39658;51.090;-1.786;2023-08-17T02:52:39;101620.81;;;11.74;100.00
53262;BME280;39658;51.090;-1.786;2023-08-17T02:55:06;101621.84;;;11.72;100.00
53262;BME280;39658;51.090;-1.786;2023-08-17T02:57:33;101613.16;;;11.70;100.00
53262;BME280;39658;51.090;-1.786;2023-08-17T02:59:59;101606.19;;;11.68;100.00
53262;BME280;39658;51.090;-1.786;2023-08-17T03:02:26;101618.25;;;11.73;100.00
53262;BME280;39658;51.090;-1.786;2023-08-17T03:04:55;101607.69;;;11.73;100.00
53262;BME280;39658;51.090;-1.786;2023-08-17T03:07:21;101607.53;;;11.76;100.00
53262;BME280;39658;51.090;-1.786;2023-08-17T03:09:48;101604.69;;;11.79;100.00
53262;BME280;39658;51.090;-1.786;2023-08-17T03:12:15;101614.25;;;11.81;100.00
53262;BME280;39658;51.090;-1.786;2023-08-17T03:14:42;101600.78;;;11.86;100.00
53262;BME280;39658;51.090;-1.786;2023-08-17T03:17:09;101611.94;;;11.91;100.00
53262;BME280;39658;51.090;-1.786;2023-08-17T03:19:35;101615.44;;;11.92;100.00
53262;BME280;39658;51.090;-1.786;2023-08-17T03:22:04;101615.53;;;11.90;100.00
53262;BME280;39658;51.090;-1.786;2023-08-17T03:24:31;101617.38;;;11.88;100.00
53262;BME280;39658;51.090;-1.786;2023-08-17T03:26:58;101607.78;;;11.87;100.00
53262;BME280;39658;51.090;-1.786;2023-08-17T03:29:25;101609.53;;;11.86;100.00
53262;BME280;39658;51.090;-1.786;2023-08-17T03:31:52;101610.50;;;11.85;100.00
53262;BME280;39658;51.090;-1.786;2023-08-17T03:34:19;101602.31;;;11.90;100.00
53262;BME280;39658;51.090;-1.786;2023-08-17T03:36:46;101603.00;;;11.94;100.00
53262;BME280;39658;51.090;-1.786;2023-08-17T03:39:14;101608.03;;;11.98;100.00
53262;BME280;39658;51.090;-1.786;2023-08-17T03:41:41;101605.13;;;12.03;100.00
53262;BME280;39658;51.090;-1.786;2023-08-17T03:44:08;101595.25;;;12.21;100.00
53262;BME280;39658;51.090;-1.786;2023-08-17T03:46:35;101598.72;;;12.52;100.00
53262;BME280;39658;51.090;-1.786;2023-08-17T03:49:02;101600.63;;;12.64;100.00
53262;BME280;39658;51.090;-1.786;2023-08-17T03:51:29;101590.81;;;12.81;100.00
53262;BME280;39658;51.090;-1.786;2023-08-17T03:53:55;101592.78;;;12.91;100.00
53262;BME280;39658;51.090;-1.786;2023-08-17T03:56:24;101586.66;;;13.05;100.00
53262;BME280;39658;51.090;-1.786;2023-08-17T03:58:53;101592.19;;;13.15;100.00
53262;BME280;39658;51.090;-1.786;2023-08-17T04:01:20;101589.63;;;13.28;100.00
53262;BME280;39658;51.090;-1.786;2023-08-17T04:03:47;101590.69;;;13.40;100.00
53262;BME280;39658;51.090;-1.786;2023-08-17T04:06:14;101593.78;;;13.46;100.00
53262;BME280;39658;51.090;-1.786;2023-08-17T04:08:41;101590.34;;;13.59;100.00
53262;BME280;39658;51.090;-1.786;2023-08-17T04:11:07;101590.47;;;13.70;100.00
53262;BME280;39658;51.090;-1.786;2023-08-17T04:13:35;101596.16;;;13.78;100.00
53262;BME280;39658;51.090;-1.786;2023-08-17T04:16:03;101593.09;;;13.85;100.00
53262;BME280;39658;51.090;-1.786;2023-08-17T04:18:29;101594.56;;;13.89;100.00
53262;BME280;39658;51.090;-1.786;2023-08-17T04:20:56;101594.72;;;14.00;100.00
53262;BME280;39658;51.090;-1.786;2023-08-17T04:23:23;101587.63;;;14.00;100.00
53262;BME280;39658;51.090;-1.786;2023-08-17T04:25:50;101591.66;;;14.06;100.00
53262;BME280;39658;51.090;-1.786;2023-08-17T04:28:17;101594.13;;;14.09;100.00
53262;BME280;39658;51.090;-1.786;2023-08-17T04:30:45;101594.84;;;14.11;100.00
53262;BME280;39658;51.090;-1.786;2023-08-17T04:33:12;101591.88;;;14.16;100.00
53262;BME280;39658;51.090;-1.786;2023-08-17T04:35:39;101589.13;;;14.17;100.00
53262;BME280;39658;51.090;-1.786;2023-08-17T04:38:06;101588.94;;;14.21;100.00
53262;BME280;39658;51.090;-1.786;2023-08-17T04:40:33;101591.38;;;14.24;100.00
53262;BME280;39658;51.090;-1.786;2023-08-17T04:43:00;101588.63;;;14.25;100.00
53262;BME280;39658;51.090;-1.786;2023-08-17T04:45:26;101591.91;;;14.29;100.00
53262;BME280;39658;51.090;-1.786;2023-08-17T04:47:55;101590.22;;;14.28;100.00
53262;BME280;39658;51.090;-1.786;2023-08-17T04:50:21;101592.31;;;14.35;100.00
53262;BME280;39658;51.090;-1.786;2023-08-17T04:52:48;101593.72;;;14.41;100.00
53262;BME280;39658;51.090;-1.786;2023-08-17T04:55:15;101590.03;;;14.44;100.00
53262;BME280;39658;51.090;-1.786;2023-08-17T04:57:42;101595.63;;;14.52;100.00
53262;BME280;39658;51.090;-1.786;2023-08-17T05:00:10;101591.16;;;14.52;100.00
53262;BME280;39658;51.090;-1.786;2023-08-17T05:02:38;101596.38;;;14.54;100.00
53262;BME280;39658;51.090;-1.786;2023-08-17T05:05:09;101600.63;;;14.57;100.00
53262;BME280;39658;51.090;-1.786;2023-08-17T05:07:36;101600.41;;;14.60;100.00
53262;BME280;39658;51.090;-1.786;2023-08-17T05:10:03;101600.97;;;14.65;100.00
53262;BME280;39658;51.090;-1.786;2023-08-17T05:12:30;101600.03;;;14.66;100.00
53262;BME280;39658;51.090;-1.786;2023-08-17T05:14:57;101586.44;;;14.70;100.00
53262;BME280;39658;51.090;-1.786;2023-08-17T05:17:24;101584.41;;;14.74;100.00
53262;BME280;39658;51.090;-1.786;2023-08-17T05:19:50;101587.72;;;14.78;100.00
53262;BME280;39658;51.090;-1.786;2023-08-17T05:22:19;101587.28;;;14.84;100.00
53262;BME280;39658;51.090;-1.786;2023-08-17T05:24:46;101589.94;;;14.84;100.00
53262;BME280;39658;51.090;-1.786;2023-08-17T05:27:13;101588.03;;;14.86;100.00
53262;BME280;39658;51.090;-1.786;2023-08-17T05:29:40;101586.09;;;14.88;100.00
53262;BME280;39658;51.090;-1.786;2023-08-17T05:32:06;101585.88;;;14.91;100.00
53262;BME280;39658;51.090;-1.786;2023-08-17T05:34:33;101590.03;;;14.95;100.00
53262;BME280;39658;51.090;-1.786;2023-08-17T05:37:00;101589.06;;;14.96;100.00
53262;BME280;39658;51.090;-1.786;2023-08-17T05:39:29;101592.34;;;15.00;100.00
53262;BME280;39658;51.090;-1.786;2023-08-17T05:41:56;101587.56;;;15.05;100.00
53262;BME280;39658;51.090;-1.786;2023-08-17T05:44:23;101582.88;;;15.08;100.00
53262;BME280;39658;51.090;-1.786;2023-08-17T05:46:50;101575.88;;;15.07;100.00
53262;BME280;39658;51.090;-1.786;2023-08-17T05:49:17;101577.56;;;15.08;100.00
53262;BME280;39658;51.090;-1.786;2023-08-17T05:51:43;101573.13;;;15.09;100.00
53262;BME280;39658;51.090;-1.786;2023-08-17T05:54:11;101572.03;;;15.12;100.00
53262;BME280;39658;51.090;-1.786;2023-08-17T05:56:40;101584.47;;;15.11;100.00
53262;BME280;39658;51.090;-1.786;2023-08-17T05:59:10;101565.75;;;15.13;100.00
53262;BME280;39658;51.090;-1.786;2023-08-17T06:01:36;101563.94;;;15.13;100.00
53262;BME280;39658;51.090;-1.786;2023-08-17T06:04:04;101561.06;;;15.16;100.00
53262;BME280;39658;51.090;-1.786;2023-08-17T06:06:31;101546.09;;;15.15;100.00
53262;BME280;39658;51.090;-1.786;2023-08-17T06:08:58;101549.50;;;15.17;100.00
53262;BME280;39658;51.090;-1.786;2023-08-17T06:11:25;101544.47;;;15.25;100.00
53262;BME280;39658;51.090;-1.786;2023-08-17T06:13:53;101539.97;;;15.39;100.00
53262;BME280;39658;51.090;-1.786;2023-08-17T06:16:20;101548.44;;;15.44;100.00
53262;BME280;39658;51.090;-1.786;2023-08-17T06:18:47;101540.88;;;15.51;100.00
53262;BME280;39658;51.090;-1.786;2023-08-17T06:21:14;101532.72;;;15.65;100.00
53262;BME280;39658;51.090;-1.786;2023-08-17T06:23:41;101527.84;;;15.83;100.00
53262;BME280;39658;51.090;-1.786;2023-08-17T06:26:08;101526.25;;;16.16;100.00
53262;BME280;39658;51.090;-1.786;2023-08-17T06:28:35;101518.81;;;16.44;100.00
53262;BME280;39658;51.090;-1.786;2023-08-17T06:31:03;101502.56;;;16.69;100.00
53262;BME280;39658;51.090;-1.786;2023-08-17T06:33:30;101478.13;;;16.87;100.00
53262;BME280;39658;51.090;-1.786;2023-08-17T06:35:57;101443.47;;;17.31;100.00
53262;BME280;39658;51.090;-1.786;2023-08-17T06:38:24;101424.84;;;17.52;100.00
53262;BME280;39658;51.090;-1.786;2023-08-17T06:40:51;101448.13;;;17.71;100.00
53262;BME280;39658;51.090;-1.786;2023-08-17T06:43:18;101461.16;;;17.85;100.00
53262;BME280;39658;51.090;-1.786;2023-08-17T06:45:45;101465.28;;;18.20;100.00
53262;BME280;39658;51.090;-1.786;2023-08-17T06:48:13;101458.13;;;18.21;100.00
53262;BME280;39658;51.090;-1.786;2023-08-17T06:50:40;101472.94;;;18.35;100.00
53262;BME280;39658;51.090;-1.786;2023-08-17T06:53:07;101470.78;;;18.59;100.00
53262;BME280;39658;51.090;-1.786;2023-08-17T06:55:34;101468.63;;;18.43;100.00
53262;BME280;39658;51.090;-1.786;2023-08-17T06:58:01;101453.28;;;18.36;100.00
53262;BME280;39658;51.090;-1.786;2023-08-17T07:00:28;101443.25;;;18.18;100.00
53262;BME280;39658;51.090;-1.786;2023-08-17T07:02:54;101450.88;;;18.02;100.00
53262;BME280;39658;51.090;-1.786;2023-08-17T07:05:23;101442.00;;;17.91;100.00
53262;BME280;39658;51.090;-1.786;2023-08-17T07:07:50;101437.28;;;17.84;100.00
53262;BME280;39658;51.090;-1.786;2023-08-17T07:10:18;101436.53;;;17.82;100.00
53262;BME280;39658;51.090;-1.786;2023-08-17T07:12:45;101446.81;;;17.86;100.00
53262;BME280;39658;51.090;-1.786;2023-08-17T07:15:12;101434.81;;;17.92;100.00
53262;BME280;39658;51.090;-1.786;2023-08-17T07:17:39;101435.53;;;17.94;100.00
53262;BME280;39658;51.090;-1.786;2023-08-17T07:20:06;101428.56;;;18.03;100.00
53262;BME280;39658;51.090;-1.786;2023-08-17T07:22:38;101430.78;;;17.98;100.00
53262;BME280;39658;51.090;-1.786;2023-08-17T07:25:05;101432.09;;;18.13;100.00
53262;BME280;39658;51.090;-1.786;2023-08-17T07:27:34;101436.44;;;18.35;100.00
53262;BME280;39658;51.090;-1.786;2023-08-17T07:30:01;101435.50;;;18.56;100.00
53262;BME280;39658;51.090;-1.786;2023-08-17T07:32:27;101426.97;;;18.72;100.00
53262;BME280;39658;51.090;-1.786;2023-08-17T07:34:54;101426.28;;;18.79;100.00
53262;BME280;39658;51.090;-1.786;2023-08-17T07:37:21;101430.38;;;18.83;100.00
53262;BME280;39658;51.090;-1.786;2023-08-17T07:39:49;101430.41;;;18.93;100.00
53262;BME280;39658;51.090;-1.786;2023-08-17T07:42:17;101433.94;;;19.04;100.00
53262;BME280;39658;51.090;-1.786;2023-08-17T07:44:44;101434.91;;;19.12;100.00
53262;BME280;39658;51.090;-1.786;2023-08-17T07:47:11;101435.94;;;19.41;100.00
53262;BME280;39658;51.090;-1.786;2023-08-17T07:49:38;101440.66;;;19.66;100.00
53262;BME280;39658;51.090;-1.786;2023-08-17T07:52:05;101446.56;;;19.89;100.00
53262;BME280;39658;51.090;-1.786;2023-08-17T07:54:32;101440.97;;;20.20;100.00
53262;BME280;39658;51.090;-1.786;2023-08-17T07:57:09;101447.72;;;20.52;100.00
53262;BME280;39658;51.090;-1.786;2023-08-17T07:59:34;101450.28;;;20.82;100.00
53262;BME280;39658;51.090;-1.786;2023-08-17T08:02:01;101458.44;;;20.90;100.00
53262;BME280;39658;51.090;-1.786;2023-08-17T08:04:28;101472.25;;;20.57;100.00
53262;BME280;39658;51.090;-1.786;2023-08-17T08:06:55;101459.53;;;20.69;100.00
53262;BME280;39658;51.090;-1.786;2023-08-17T08:09:21;101462.06;;;20.71;100.00
53262;BME280;39658;51.090;-1.786;2023-08-17T08:11:49;101464.59;;;20.35;100.00
53262;BME280;39658;51.090;-1.786;2023-08-17T08:14:17;101453.41;;;20.12;100.00
53262;BME280;39658;51.090;-1.786;2023-08-17T08:16:44;101436.41;;;19.93;100.00
53262;BME280;39658;51.090;-1.786;2023-08-17T08:19:12;101420.09;;;19.86;100.00
53262;BME280;39658;51.090;-1.786;2023-08-17T08:21:39;101417.88;;;19.72;100.00
53262;BME280;39658;51.090;-1.786;2023-08-17T08:24:06;101416.88;;;19.63;100.00
53262;BME280;39658;51.090;-1.786;2023-08-17T08:26:33;101423.34;;;19.70;100.00
53262;BME280;39658;51.090;-1.786;2023-08-17T08:29:00;101422.41;;;20.74;100.00
53262;BME280;39658;51.090;-1.786;2023-08-17T08:31:28;101458.28;;;21.63;100.00
53262;BME280;39658;51.090;-1.786;2023-08-17T08:33:55;101484.84;;;22.19;100.00
53262;BME280;39658;51.090;-1.786;2023-08-17T08:36:21;101526.63;;;21.95;100.00
53262;BME280;39658;51.090;-1.786;2023-08-17T08:38:48;101521.75;;;21.55;100.00
53262;BME280;39658;51.090;-1.786;2023-08-17T08:41:16;101530.97;;;21.06;100.00
53262;BME280;39658;51.090;-1.786;2023-08-17T08:43:43;101500.66;;;20.78;100.00
53262;BME280;39658;51.090;-1.786;2023-08-17T08:46:11;101480.69;;;20.62;100.00
53262;BME280;39658;51.090;-1.786;2023-08-17T08:48:41;101460.81;;;20.55;100.00
53262;BME280;39658;51.090;-1.786;2023-08-17T08:51:08;101458.28;;;20.63;100.00
53262;BME280;39658;51.090;-1.786;2023-08-17T08:53:44;101473.06;;;20.68;100.00
53262;BME280;39658;51.090;-1.786;2023-08-17T08:56:12;101466.03;;;20.67;100.00
53262;BME280;39658;51.090;-1.786;2023-08-17T08:58:40;101457.25;;;20.74;100.00
53262;BME280;39658;51.090;-1.786;2023-08-17T09:01:10;101475.03;;;20.93;100.00
53262;BME280;39658;51.090;-1.786;2023-08-17T09:03:39;101501.69;;;21.59;100.00
53262;BME280;39658;51.090;-1.786;2023-08-17T09:06:07;101508.56;;;21.79;100.00
53262;BME280;39658;51.090;-1.786;2023-08-17T09:08:36;101543.28;;;21.99;100.00
53262;BME280;39658;51.090;-1.786;2023-08-17T09:11:03;101556.50;;;22.18;100.00
53262;BME280;39658;51.090;-1.786;2023-08-17T09:13:30;101536.59;;;23.65;100.00
53262;BME280;39658;51.090;-1.786;2023-08-17T09:15:58;101596.25;;;24.76;100.00
53262;BME280;39658;51.090;-1.786;2023-08-17T09:18:25;101610.34;;;24.06;100.00
53262;BME280;39658;51.090;-1.786;2023-08-17T09:20:54;101620.66;;;23.43;100.00
53262;BME280;39658;51.090;-1.786;2023-08-17T09:23:22;101613.56;;;22.65;100.00
53262;BME280;39658;51.090;-1.786;2023-08-17T09:25:50;101565.16;;;22.30;100.00
53262;BME280;39658;51.090;-1.786;2023-08-17T09:28:23;101580.81;;;22.35;100.00
53262;BME280;39658;51.090;-1.786;2023-08-17T09:30:52;101584.25;;;24.06;100.00
53262;BME280;39658;51.090;-1.786;2023-08-17T09:33:19;101591.81;;;24.91;100.00
53262;BME280;39658;51.090;-1.786;2023-08-17T09:35:47;101619.59;;;24.11;100.00
53262;BME280;39658;51.090;-1.786;2023-08-17T09:38:15;101598.00;;;23.62;100.00
53262;BME280;39658;51.090;-1.786;2023-08-17T09:40:42;101590.88;;;23.36;100.00
53262;BME280;39658;51.090;-1.786;2023-08-17T09:43:09;101581.28;;;23.34;100.00
53262;BME280;39658;51.090;-1.786;2023-08-17T09:45:37;101606.88;;;23.46;100.00
53262;BME280;39658;51.090;-1.786;2023-08-17T09:48:04;101596.97;;;23.46;100.00
53262;BME280;39658;51.090;-1.786;2023-08-17T09:50:31;101586.91;;;23.65;100.00
53262;BME280;39658;51.090;-1.786;2023-08-17T09:52:57;101576.25;;;23.39;100.00
53262;BME280;39658;51.090;-1.786;2023-08-17T09:55:26;101581.59;;;23.22;100.00
53262;BME280;39658;51.090;-1.786;2023-08-17T09:57:52;101591.13;;;23.08;100.00
53262;BME280;39658;51.090;-1.786;2023-08-17T10:00:19;101597.56;;;22.89;100.00
53262;BME280;39658;51.090;-1.786;2023-08-17T10:02:49;101597.91;;;22.86;100.00
53262;BME280;39658;51.090;-1.786;2023-08-17T10:05:18;101588.75;;;22.71;100.00
53262;BME280;39658;51.090;-1.786;2023-08-17T10:07:49;101594.59;;;22.66;100.00
53262;BME280;39658;51.090;-1.786;2023-08-17T10:10:22;101582.63;;;22.61;100.00
53262;BME280;39658;51.090;-1.786;2023-08-17T10:12:59;101574.97;;;22.66;100.00
53262;BME280;39658;51.090;-1.786;2023-08-17T10:15:30;101572.50;;;22.81;100.00
53262;BME280;39658;51.090;-1.786;2023-08-17T10:18:11;101583.97;;;23.34;100.00
53262;BME280;39658;51.090;-1.786;2023-08-17T10:20:41;101570.06;;;24.20;100.00
53262;BME280;39658;51.090;-1.786;2023-08-17T10:23:14;101555.84;;;25.62;100.00
53262;BME280;39658;51.090;-1.786;2023-08-17T10:25:42;101542.06;;;26.18;100.00
53262;BME280;39658;51.090;-1.786;2023-08-17T10:28:10;101470.16;;;25.94;100.00
53262;BME280;39658;51.090;-1.786;2023-08-17T10:30:38;101374.56;;;25.80;100.00
53262;BME280;39658;51.090;-1.786;2023-08-17T10:33:05;101165.75;;;26.44;100.00
53262;BME280;39658;51.090;-1.786;2023-08-17T10:35:33;100973.69;;;26.52;100.00
53262;BME280;39658;51.090;-1.786;2023-08-17T10:38:02;100830.91;;;27.16;100.00
53262;BME280;39658;51.090;-1.786;2023-08-17T10:40:35;100726.63;;;27.79;100.00
53262;BME280;39658;51.090;-1.786;2023-08-17T10:43:03;100682.69;;;27.77;100.00
53262;BME280;39658;51.090;-1.786;2023-08-17T10:45:32;100664.78;;;27.11;100.00
53262;BME280;39658;51.090;-1.786;2023-08-17T10:50:59;100690.88;;;25.83;100.00
53262;BME280;39658;51.090;-1.786;2023-08-17T10:53:26;100699.91;;;25.55;100.00
53262;BME280;39658;51.090;-1.786;2023-08-17T10:55:57;100729.81;;;25.54;100.00
53262;BME280;39658;51.090;-1.786;2023-08-17T10:58:24;100729.06;;;25.73;100.00
53262;BME280;39658;51.090;-1.786;2023-08-17T11:00:55;100725.22;;;25.19;100.00
53262;BME280;39658;51.090;-1.786;2023-08-17T11:03:22;100767.91;;;24.87;100.00
53262;BME280;39658;51.090;-1.786;2023-08-17T11:05:50;100775.63;;;25.82;100.00
53262;BME280;39658;51.090;-1.786;2023-08-17T11:08:23;100715.19;;;28.22;100.00
53262;BME280;39658;51.090;-1.786;2023-08-17T11:10:58;100720.88;;;27.62;100.00
53262;BME280;39658;51.090;-1.786;2023-08-17T11:13:27;100708.69;;;27.06;100.00
53262;BME280;39658;51.090;-1.786;2023-08-17T11:15:57;100723.34;;;28.79;100.00
53262;BME280;39658;51.090;-1.786;2023-08-17T11:18:24;100811.34;;;29.78;100.00
53262;BME280;39658;51.090;-1.786;2023-08-17T11:20:52;100792.75;;;28.55;100.00
53262;BME280;39658;51.090;-1.786;2023-08-17T11:23:19;100798.19;;;27.51;100.00
53262;BME280;39658;51.090;-1.786;2023-08-17T11:25:46;100771.19;;;25.68;100.00
53262;BME280;39658;51.090;-1.786;2023-08-17T11:28:13;100750.88;;;24.59;100.00
53262;BME280;39658;51.090;-1.786;2023-08-17T11:30:40;100806.94;;;24.12;100.00
53262;BME280;39658;51.090;-1.786;2023-08-17T11:33:09;100953.09;;;23.91;100.00
53262;BME280;39658;51.090;-1.786;2023-08-17T11:35:37;100997.25;;;23.81;100.00
53262;BME280;39658;51.090;-1.786;2023-08-17T11:38:05;101104.72;;;23.60;100.00
53262;BME280;39658;51.090;-1.786;2023-08-17T11:40:32;101153.53;;;23.57;100.00
53262;BME280;39658;51.090;-1.786;2023-08-17T11:43:00;101162.75;;;23.31;100.00
53262;BME280;39658;51.090;-1.786;2023-08-17T11:45:27;101201.81;;;23.19;100.00
53262;BME280;39658;51.090;-1.786;2023-08-17T11:47:54;101212.03;;;23.07;100.00
53262;BME280;39658;51.090;-1.786;2023-08-17T11:50:24;101282.47;;;23.02;100.00
53262;BME280;39658;51.090;-1.786;2023-08-17T11:52:51;101327.00;;;22.88;100.00
53262;BME280;39658;51.090;-1.786;2023-08-17T11:55:18;101332.88;;;22.75;100.00
53262;BME280;39658;51.090;-1.786;2023-08-17T11:57:46;101368.50;;;22.61;100.00
53262;BME280;39658;51.090;-1.786;2023-08-17T12:00:18;101385.03;;;22.40;100.00
53262;BME280;39658;51.090;-1.786;2023-08-17T12:02:47;101405.72;;;22.39;100.00
53262;BME280;39658;51.090;-1.786;2023-08-17T12:05:19;101407.88;;;22.36;100.00
53262;BME280;39658;51.090;-1.786;2023-08-17T12:07:47;101412.50;;;22.26;100.00
53262;BME280;39658;51.090;-1.786;2023-08-17T12:10:14;101405.41;;;22.16;100.00
53262;BME280;39658;51.090;-1.786;2023-08-17T12:12:41;101417.00;;;22.17;100.00
53262;BME280;39658;51.090;-1.786;2023-08-17T12:15:10;101424.84;;;22.10;100.00
53262;BME280;39658;51.090;-1.786;2023-08-17T12:17:43;101418.28;;;22.04;100.00
53262;BME280;39658;51.090;-1.786;2023-08-17T12:20:15;101408.22;;;22.07;100.00
53262;BME280;39658;51.090;-1.786;2023-08-17T12:22:42;101410.94;;;22.15;100.00
53262;BME280;39658;51.090;-1.786;2023-08-17T12:25:10;101407.63;;;22.21;100.00
53262;BME280;39658;51.090;-1.786;2023-08-17T12:27:37;101407.03;;;22.35;100.00
53262;BME280;39658;51.090;-1.786;2023-08-17T12:30:05;101407.41;;;22.49;100.00
53262;BME280;39658;51.090;-1.786;2023-08-17T12:32:38;101398.38;;;22.66;100.00
53262;BME280;39658;51.090;-1.786;2023-08-17T12:35:05;101402.28;;;22.88;100.00
53262;BME280;39658;51.090;-1.786;2023-08-17T12:37:32;101389.25;;;23.18;100.00